sensor_id;sensor_type;location;lat;lon;timestamp;temperature;humidity
76759;DHT22;65701;45.588;5.186;2023-03-13T07:19:02;13.68;71.85
76759;DHT22;65701;45.588;5.186;2023-03-13T07:21:28;13.80;71.61
76759;DHT22;65701;45.588;5.186;2023-03-13T07:23:53;13.99;71.41
76759;DHT22;65701;45.588;5.186;2023-03-13T07:26:19;14.18;70.91
76759;DHT22;65701;45.588;5.186;2023-03-13T07:28:44;14.34;70.70
76759;DHT22;65701;45.588;5.186;2023-03-13T07:31:15;14.46;70.34
76759;DHT22;65701;45.588;5.186;2023-03-13T07:33:42;14.61;69.96
76759;DHT22;65701;45.588;5.186;2023-03-13T07:36:10;14.72;69.51
76759;DHT22;65701;45.588;5.186;2023-03-13T07:38:37;14.76;69.24
76759;DHT22;65701;45.588;5.186;2023-03-13T07:41:03;14.75;68.75
76759;DHT22;65701;45.588;5.186;2023-03-13T07:43:29;14.68;68.59
76759;DHT22;65701;45.588;5.186;2023-03-13T07:48:23;14.54;68.39
76759;DHT22;65701;45.588;5.186;2023-03-13T07:50:53;14.48;68.19
76759;DHT22;65701;45.588;5.186;2023-03-13T07:53:19;14.48;68.10
76759;DHT22;65701;45.588;5.186;2023-03-13T07:56:12;14.44;68.06
76759;DHT22;65701;45.588;5.186;2023-03-13T07:58:39;14.44;68.08
76759;DHT22;65701;45.588;5.186;2023-03-13T08:01:09;14.45;68.16
76759;DHT22;65701;45.588;5.186;2023-03-13T08:03:36;14.45;68.53
76759;DHT22;65701;45.588;5.186;2023-03-13T08:06:05;14.41;68.37
76759;DHT22;65701;45.588;5.186;2023-03-13T08:08:34;14.45;68.21
76759;DHT22;65701;45.588;5.186;2023-03-13T08:13:26;14.61;68.36
76759;DHT22;65701;45.588;5.186;2023-03-13T08:15:51;14.71;67.99
76759;DHT22;65701;45.588;5.186;2023-03-13T08:18:17;14.73;67.93
76759;DHT22;65701;45.588;5.186;2023-03-13T08:20:43;14.72;67.62
76759;DHT22;65701;45.588;5.186;2023-03-13T08:23:09;14.69;67.67
76759;DHT22;65701;45.588;5.186;2023-03-13T08:25:34;14.64;67.52
76759;DHT22;65701;45.588;5.186;2023-03-13T08:28:00;14.64;67.44
76759;DHT22;65701;45.588;5.186;2023-03-13T08:30:25;14.65;67.31
76759;DHT22;65701;45.588;5.186;2023-03-13T08:32:50;14.65;67.42
76759;DHT22;65701;45.588;5.186;2023-03-13T08:35:18;14.68;67.32
76759;DHT22;65701;45.588;5.186;2023-03-13T08:37:46;14.67;67.12
76759;DHT22;65701;45.588;5.186;2023-03-13T08:40:13;14.72;67.15
76759;DHT22;65701;45.588;5.186;2023-03-13T08:42:40;14.73;67.05
76759;DHT22;65701;45.588;5.186;2023-03-13T08:45:06;14.79;67.01
76759;DHT22;65701;45.588;5.186;2023-03-13T08:47:33;14.85;67.01
76759;DHT22;65701;45.588;5.186;2023-03-13T08:50:01;14.92;67.05
76759;DHT22;65701;45.588;5.186;2023-03-13T08:52:26;14.96;66.77
76759;DHT22;65701;45.588;5.186;2023-03-13T08:54:52;15.04;66.61
76759;DHT22;65701;45.588;5.186;2023-03-13T08:57:17;15.07;66.45
76759;DHT22;65701;45.588;5.186;2023-03-13T08:59:42;15.10;66.09
76759;DHT22;65701;45.588;5.186;2023-03-13T09:02:09;15.11;66.09
76759;DHT22;65701;45.588;5.186;2023-03-13T09:04:36;15.24;66.07
76759;DHT22;65701;45.588;5.186;2023-03-13T09:07:04;15.34;66.10
76759;DHT22;65701;45.588;5.186;2023-03-13T09:09:29;15.41;66.27
76759;DHT22;65701;45.588;5.186;2023-03-13T09:11:55;15.42;65.88
76759;DHT22;65701;45.588;5.186;2023-03-13T09:14:20;15.47;65.69
76759;DHT22;65701;45.588;5.186;2023-03-13T09:16:50;15.55;65.42
76759;DHT22;65701;45.588;5.186;2023-03-13T09:19:16;15.54;65.21
76759;DHT22;65701;45.588;5.186;2023-03-13T09:21:42;15.57;65.07
76759;DHT22;65701;45.588;5.186;2023-03-13T09:24:07;15.58;65.15
76759;DHT22;65701;45.588;5.186;2023-03-13T09:26:34;15.58;64.74
76759;DHT22;65701;45.588;5.186;2023-03-13T09:28:59;15.59;64.53
76759;DHT22;65701;45.588;5.186;2023-03-13T09:31:29;15.63;64.56
76759;DHT22;65701;45.588;5.186;2023-03-13T09:33:54;15.71;64.64
76759;DHT22;65701;45.588;5.186;2023-03-13T09:36:20;15.82;64.86
76759;DHT22;65701;45.588;5.186;2023-03-13T09:42:11;16.25;64.20
76759;DHT22;65701;45.588;5.186;2023-03-13T09:44:43;16.55;64.24
76759;DHT22;65701;45.588;5.186;2023-03-13T09:47:13;16.68;63.76
76759;DHT22;65701;45.588;5.186;2023-03-13T09:49:45;16.80;63.07
76759;DHT22;65701;45.588;5.186;2023-03-13T09:57:57;17.06;62.91
76759;DHT22;65701;45.588;5.186;2023-03-13T10:00:33;17.03;62.01
76759;DHT22;65701;45.588;5.186;2023-03-13T10:05:37;17.02;61.81
76759;DHT22;65701;45.588;5.186;2023-03-13T10:08:12;17.00;61.76
76759;DHT22;65701;45.588;5.186;2023-03-13T10:11:04;17.03;61.75
76759;DHT22;65701;45.588;5.186;2023-03-13T10:16:07;17.10;62.16
76759;DHT22;65701;45.588;5.186;2023-03-13T10:18:34;17.12;62.20
76759;DHT22;65701;45.588;5.186;2023-03-13T10:21:11;17.19;62.21
76759;DHT22;65701;45.588;5.186;2023-03-13T10:23:43;17.23;61.79
76759;DHT22;65701;45.588;5.186;2023-03-13T10:26:20;17.30;61.91
76759;DHT22;65701;45.588;5.186;2023-03-13T10:28:50;17.37;62.02
76759;DHT22;65701;45.588;5.186;2023-03-13T10:31:23;17.41;62.14
76759;DHT22;65701;45.588;5.186;2023-03-13T10:33:51;17.50;62.16
76759;DHT22;65701;45.588;5.186;2023-03-13T10:36:18;17.54;62.26
76759;DHT22;65701;45.588;5.186;2023-03-13T10:38:51;17.58;62.15
76759;DHT22;65701;45.588;5.186;2023-03-13T10:41:35;17.65;62.20
76759;DHT22;65701;45.588;5.186;2023-03-13T10:44:06;17.69;62.11
76759;DHT22;65701;45.588;5.186;2023-03-13T10:46:42;17.71;61.86
76759;DHT22;65701;45.588;5.186;2023-03-13T10:49:17;17.77;61.75
76759;DHT22;65701;45.588;5.186;2023-03-13T10:51:49;17.81;62.12
76759;DHT22;65701;45.588;5.186;2023-03-13T10:54:22;17.85;61.77
76759;DHT22;65701;45.588;5.186;2023-03-13T10:56:49;17.95;61.80
76759;DHT22;65701;45.588;5.186;2023-03-13T10:59:23;18.06;62.16
76759;DHT22;65701;45.588;5.186;2023-03-13T11:01:49;18.18;62.26
76759;DHT22;65701;45.588;5.186;2023-03-13T11:04:54;18.32;62.36
76759;DHT22;65701;45.588;5.186;2023-03-13T11:07:33;18.52;61.98
76759;DHT22;65701;45.588;5.186;2023-03-13T11:10:18;18.64;61.69
76759;DHT22;65701;45.588;5.186;2023-03-13T11:13:02;18.71;61.19
76759;DHT22;65701;45.588;5.186;2023-03-13T11:15:41;18.81;61.39
76759;DHT22;65701;45.588;5.186;2023-03-13T11:18:40;18.85;61.23
76759;DHT22;65701;45.588;5.186;2023-03-13T11:22:12;18.81;61.18
76759;DHT22;65701;45.588;5.186;2023-03-13T11:24:55;18.84;61.14
76759;DHT22;65701;45.588;5.186;2023-03-13T11:27:28;18.87;60.95
76759;DHT22;65701;45.588;5.186;2023-03-13T11:33:04;18.94;60.58
76759;DHT22;65701;45.588;5.186;2023-03-13T11:35:50;19.02;60.43
76759;DHT22;65701;45.588;5.186;2023-03-13T11:38:51;18.89;60.56
76759;DHT22;65701;45.588;5.186;2023-03-13T11:54:56;19.20;60.89
76759;DHT22;65701;45.588;5.186;2023-03-13T11:57:27;19.03;60.81
76759;DHT22;65701;45.588;5.186;2023-03-13T12:00:20;19.15;60.99
76759;DHT22;65701;45.588;5.186;2023-03-13T12:03:21;19.24;61.23
76759;DHT22;65701;45.588;5.186;2023-03-13T12:06:28;19.30;61.59
76759;DHT22;65701;45.588;5.186;2023-03-13T12:09:09;19.43;61.51
76759;DHT22;65701;45.588;5.186;2023-03-13T12:14:32;19.57;61.90
76759;DHT22;65701;45.588;5.186;2023-03-13T12:17:05;19.64;61.58
76759;DHT22;65701;45.588;5.186;2023-03-13T12:22:53;19.65;61.73
76759;DHT22;65701;45.588;5.186;2023-03-13T12:25:27;19.65;62.13
76759;DHT22;65701;45.588;5.186;2023-03-13T12:28:15;19.78;62.06
76759;DHT22;65701;45.588;5.186;2023-03-13T12:30:47;19.88;62.14
76759;DHT22;65701;45.588;5.186;2023-03-13T12:33:37;19.99;62.54
76759;DHT22;65701;45.588;5.186;2023-03-13T12:36:11;20.02;62.47
76759;DHT22;65701;45.588;5.186;2023-03-13T12:38:56;20.13;62.08
76759;DHT22;65701;45.588;5.186;2023-03-13T12:41:39;20.12;61.97
76759;DHT22;65701;45.588;5.186;2023-03-13T12:44:15;20.16;61.89
76759;DHT22;65701;45.588;5.186;2023-03-13T12:47:22;20.27;62.14
76759;DHT22;65701;45.588;5.186;2023-03-13T12:50:01;20.30;62.51
76759;DHT22;65701;45.588;5.186;2023-03-13T12:52:49;20.34;61.89
76759;DHT22;65701;45.588;5.186;2023-03-13T12:55:31;20.39;61.25
76759;DHT22;65701;45.588;5.186;2023-03-13T13:00:53;20.41;61.05
76759;DHT22;65701;45.588;5.186;2023-03-13T13:06:11;20.50;61.13
76759;DHT22;65701;45.588;5.186;2023-03-13T13:08:40;20.53;61.11
76759;DHT22;65701;45.588;5.186;2023-03-13T13:16:47;20.75;61.59
76759;DHT22;65701;45.588;5.186;2023-03-13T13:32:48;20.75;60.22
76759;DHT22;65701;45.588;5.186;2023-03-13T13:37:45;20.68;60.35
76759;DHT22;65701;45.588;5.186;2023-03-13T13:45:35;20.67;60.43
76759;DHT22;65701;45.588;5.186;2023-03-13T13:48:32;20.67;60.32
76759;DHT22;65701;45.588;5.186;2023-03-13T13:53:49;20.65;60.34
76759;DHT22;65701;45.588;5.186;2023-03-13T14:02:04;20.70;60.69
76759;DHT22;65701;45.588;5.186;2023-03-13T14:04:42;20.65;60.32
76759;DHT22;65701;45.588;5.186;2023-03-13T14:07:23;20.72;60.49
76759;DHT22;65701;45.588;5.186;2023-03-13T14:12:34;20.80;60.82
76759;DHT22;65701;45.588;5.186;2023-03-13T14:15:17;20.75;60.65
76759;DHT22;65701;45.588;5.186;2023-03-13T14:17:52;20.72;60.40
76759;DHT22;65701;45.588;5.186;2023-03-13T14:20:40;20.74;60.34
76759;DHT22;65701;45.588;5.186;2023-03-13T14:23:37;20.72;60.16
76759;DHT22;65701;45.588;5.186;2023-03-13T14:26:21;20.74;60.20
76759;DHT22;65701;45.588;5.186;2023-03-13T14:28:55;20.68;60.49
76759;DHT22;65701;45.588;5.186;2023-03-13T14:31:28;20.64;60.27
76759;DHT22;65701;45.588;5.186;2023-03-13T14:33:55;20.51;59.75
76759;DHT22;65701;45.588;5.186;2023-03-13T14:36:21;20.57;59.78
76759;DHT22;65701;45.588;5.186;2023-03-13T14:38:58;20.50;59.62
76759;DHT22;65701;45.588;5.186;2023-03-13T14:41:35;20.48;60.00
76759;DHT22;65701;45.588;5.186;2023-03-13T14:44:04;20.37;59.98
76759;DHT22;65701;45.588;5.186;2023-03-13T14:46:32;20.33;59.88
76759;DHT22;65701;45.588;5.186;2023-03-13T14:51:38;20.39;60.10
76759;DHT22;65701;45.588;5.186;2023-03-13T14:54:04;20.37;60.15
76759;DHT22;65701;45.588;5.186;2023-03-13T14:56:37;20.36;60.10
76759;DHT22;65701;45.588;5.186;2023-03-13T14:59:17;20.39;60.35
76759;DHT22;65701;45.588;5.186;2023-03-13T15:01:44;20.40;60.60
76759;DHT22;65701;45.588;5.186;2023-03-13T15:04:10;20.41;60.56
76759;DHT22;65701;45.588;5.186;2023-03-13T15:06:36;20.39;60.65
76759;DHT22;65701;45.588;5.186;2023-03-13T15:11:40;20.33;60.68
76759;DHT22;65701;45.588;5.186;2023-03-13T15:14:38;20.29;60.64
76759;DHT22;65701;45.588;5.186;2023-03-13T15:17:23;20.36;60.91
76759;DHT22;65701;45.588;5.186;2023-03-13T15:19:54;20.29;61.03
76759;DHT22;65701;45.588;5.186;2023-03-13T15:22:27;20.30;61.03
76759;DHT22;65701;45.588;5.186;2023-03-13T15:24:53;20.25;61.10
76759;DHT22;65701;45.588;5.186;2023-03-13T15:27:21;20.23;61.32
76759;DHT22;65701;45.588;5.186;2023-03-13T15:29:47;20.23;61.48
76759;DHT22;65701;45.588;5.186;2023-03-13T15:32:19;20.19;61.51
76759;DHT22;65701;45.588;5.186;2023-03-13T15:34:47;20.17;61.62
76759;DHT22;65701;45.588;5.186;2023-03-13T15:37:13;20.10;61.70
76759;DHT22;65701;45.588;5.186;2023-03-13T15:39:39;20.12;61.85
76759;DHT22;65701;45.588;5.186;2023-03-13T15:42:04;20.12;61.87
76759;DHT22;65701;45.588;5.186;2023-03-13T15:44:30;20.08;61.91
76759;DHT22;65701;45.588;5.186;2023-03-13T15:46:55;19.99;62.03
76759;DHT22;65701;45.588;5.186;2023-03-13T15:49:21;19.95;62.05
76759;DHT22;65701;45.588;5.186;2023-03-13T15:51:46;19.88;62.17
76759;DHT22;65701;45.588;5.186;2023-03-13T15:54:12;19.79;62.17
76759;DHT22;65701;45.588;5.186;2023-03-13T15:56:37;19.79;62.24
76759;DHT22;65701;45.588;5.186;2023-03-13T15:59:21;19.74;62.46
76759;DHT22;65701;45.588;5.186;2023-03-13T16:01:46;19.75;62.67
76759;DHT22;65701;45.588;5.186;2023-03-13T16:04:14;19.75;62.77
76759;DHT22;65701;45.588;5.186;2023-03-13T16:06:41;19.62;62.67
76759;DHT22;65701;45.588;5.186;2023-03-13T16:09:11;19.64;62.71
76759;DHT22;65701;45.588;5.186;2023-03-13T16:11:38;19.62;62.75
76759;DHT22;65701;45.588;5.186;2023-03-13T16:14:06;19.57;62.92
76759;DHT22;65701;45.588;5.186;2023-03-13T16:16:34;19.46;63.02
76759;DHT22;65701;45.588;5.186;2023-03-13T16:22:05;19.33;63.21
76759;DHT22;65701;45.588;5.186;2023-03-13T16:24:32;19.20;63.32
76759;DHT22;65701;45.588;5.186;2023-03-13T16:26:58;19.16;63.49
76759;DHT22;65701;45.588;5.186;2023-03-13T16:29:23;19.10;63.64
76759;DHT22;65701;45.588;5.186;2023-03-13T16:31:51;19.09;63.72
76759;DHT22;65701;45.588;5.186;2023-03-13T16:34:17;18.98;63.81
76759;DHT22;65701;45.588;5.186;2023-03-13T16:36:43;18.88;63.81
76759;DHT22;65701;45.588;5.186;2023-03-13T16:39:13;18.85;63.98
76759;DHT22;65701;45.588;5.186;2023-03-13T16:41:39;18.81;64.06
76759;DHT22;65701;45.588;5.186;2023-03-13T16:44:05;18.71;64.12
76759;DHT22;65701;45.588;5.186;2023-03-13T16:46:39;18.65;64.28
76759;DHT22;65701;45.588;5.186;2023-03-13T16:49:07;18.65;64.46
76759;DHT22;65701;45.588;5.186;2023-03-13T16:51:57;18.60;64.62
76759;DHT22;65701;45.588;5.186;2023-03-13T16:54:23;18.52;64.89
76759;DHT22;65701;45.588;5.186;2023-03-13T16:56:48;18.54;65.04
76759;DHT22;65701;45.588;5.186;2023-03-13T16:59:16;18.33;65.20
76759;DHT22;65701;45.588;5.186;2023-03-13T17:01:45;18.38;65.40
76759;DHT22;65701;45.588;5.186;2023-03-13T17:04:11;18.27;65.49
76759;DHT22;65701;45.588;5.186;2023-03-13T17:06:38;18.17;65.69
76759;DHT22;65701;45.588;5.186;2023-03-13T17:09:11;18.13;65.80
76759;DHT22;65701;45.588;5.186;2023-03-13T17:11:37;18.10;65.90
76759;DHT22;65701;45.588;5.186;2023-03-13T17:14:03;18.00;65.97
76759;DHT22;65701;45.588;5.186;2023-03-13T17:16:31;17.95;66.10
76759;DHT22;65701;45.588;5.186;2023-03-13T17:18:58;17.95;66.19
76759;DHT22;65701;45.588;5.186;2023-03-13T17:21:27;17.90;66.29
76759;DHT22;65701;45.588;5.186;2023-03-13T17:23:53;17.77;66.43
76759;DHT22;65701;45.588;5.186;2023-03-13T17:26:20;17.64;66.53
76759;DHT22;65701;45.588;5.186;2023-03-13T17:28:48;17.61;66.57
76759;DHT22;65701;45.588;5.186;2023-03-13T17:31:15;17.64;66.69
76759;DHT22;65701;45.588;5.186;2023-03-13T17:33:41;17.50;66.73
76759;DHT22;65701;45.588;5.186;2023-03-13T17:38:48;17.48;67.00
76759;DHT22;65701;45.588;5.186;2023-03-13T17:41:16;17.37;67.04
76759;DHT22;65701;45.588;5.186;2023-03-13T17:43:42;17.35;67.09
76759;DHT22;65701;45.588;5.186;2023-03-13T17:48:38;17.20;67.11
76759;DHT22;65701;45.588;5.186;2023-03-13T17:51:04;17.24;67.23
76759;DHT22;65701;45.588;5.186;2023-03-13T17:53:30;17.22;67.27
76759;DHT22;65701;45.588;5.186;2023-03-13T17:55:56;17.17;67.32
76759;DHT22;65701;45.588;5.186;2023-03-13T17:58:21;17.16;67.31
76759;DHT22;65701;45.588;5.186;2023-03-13T18:00:47;17.00;67.42
76759;DHT22;65701;45.588;5.186;2023-03-13T18:03:13;17.05;67.60
76759;DHT22;65701;45.588;5.186;2023-03-13T18:05:38;17.00;67.70
76759;DHT22;65701;45.588;5.186;2023-03-13T18:08:04;16.93;67.79
76759;DHT22;65701;45.588;5.186;2023-03-13T18:10:29;16.96;67.91
76759;DHT22;65701;45.588;5.186;2023-03-13T18:12:55;16.90;67.98
76759;DHT22;65701;45.588;5.186;2023-03-13T18:15:23;16.85;68.11
76759;DHT22;65701;45.588;5.186;2023-03-13T18:17:49;16.83;68.18
76759;DHT22;65701;45.588;5.186;2023-03-13T18:20:18;16.71;68.24
76759;DHT22;65701;45.588;5.186;2023-03-13T18:22:44;16.78;68.29
76759;DHT22;65701;45.588;5.186;2023-03-13T18:25:11;16.76;68.34
76759;DHT22;65701;45.588;5.186;2023-03-13T18:27:37;16.71;68.44
76759;DHT22;65701;45.588;5.186;2023-03-13T18:30:09;16.68;68.44
76759;DHT22;65701;45.588;5.186;2023-03-13T18:32:37;16.65;68.62
76759;DHT22;65701;45.588;5.186;2023-03-13T18:35:03;16.62;68.67
76759;DHT22;65701;45.588;5.186;2023-03-13T18:37:29;16.67;68.71
76759;DHT22;65701;45.588;5.186;2023-03-13T18:39:57;16.52;68.76
76759;DHT22;65701;45.588;5.186;2023-03-13T18:42:26;16.58;68.87
76759;DHT22;65701;45.588;5.186;2023-03-13T18:44:52;16.54;68.85
76759;DHT22;65701;45.588;5.186;2023-03-13T18:47:20;16.57;68.90
76759;DHT22;65701;45.588;5.186;2023-03-13T18:49:47;16.57;68.83
76759;DHT22;65701;45.588;5.186;2023-03-13T18:52:14;16.54;68.88
76759;DHT22;65701;45.588;5.186;2023-03-13T18:54:40;16.48;68.73
76759;DHT22;65701;45.588;5.186;2023-03-13T18:57:14;16.52;68.69
76759;DHT22;65701;45.588;5.186;2023-03-13T18:59:40;16.54;68.67
76759;DHT22;65701;45.588;5.186;2023-03-13T19:02:13;16.51;68.66
76759;DHT22;65701;45.588;5.186;2023-03-13T19:04:38;16.50;68.59
76759;DHT22;65701;45.588;5.186;2023-03-13T19:07:19;16.52;68.57
76759;DHT22;65701;45.588;5.186;2023-03-13T19:09:46;16.61;68.51
76759;DHT22;65701;45.588;5.186;2023-03-13T19:12:12;16.65;68.52
76759;DHT22;65701;45.588;5.186;2023-03-13T19:14:39;16.72;68.37
76759;DHT22;65701;45.588;5.186;2023-03-13T19:17:12;16.75;68.21
76759;DHT22;65701;45.588;5.186;2023-03-13T19:19:40;16.69;68.18
76759;DHT22;65701;45.588;5.186;2023-03-13T19:22:11;16.73;68.32
76759;DHT22;65701;45.588;5.186;2023-03-13T19:24:38;16.73;68.47
76759;DHT22;65701;45.588;5.186;2023-03-13T19:27:04;16.76;68.52
76759;DHT22;65701;45.588;5.186;2023-03-13T19:29:30;16.72;68.85
